createdAt,value
2023-01-21T00:00:58.331Z,83.42
2023-01-21T00:02:00.556Z,83.26
2023-01-21T00:03:03.013Z,83.39
2023-01-21T00:04:05.468Z,83.86
2023-01-21T00:05:08.530Z,83.74
2023-01-21T00:06:12.025Z,84.02
2023-01-21T00:07:14.244Z,83.82
2023-01-21T00:08:16.892Z,83.98
2023-01-21T00:09:19.067Z,83.89
2023-01-21T00:10:21.468Z,83.97
2023-01-21T00:11:23.680Z,84.29
2023-01-21T00:12:25.879Z,84.44
2023-01-21T00:13:28.268Z,84.60
2023-01-21T00:14:30.971Z,84.10
2023-01-21T00:15:33.502Z,84.35
2023-01-21T00:16:35.775Z,84.03
2023-01-21T00:17:37.983Z,84.24
2023-01-21T00:18:40.598Z,84.08
2023-01-21T00:19:43.032Z,84.28
2023-01-21T00:20:46.194Z,84.76
2023-01-21T00:21:49.126Z,85.23
2023-01-21T00:22:53.908Z,84.69
2023-01-21T00:23:56.379Z,84.97
2023-01-21T00:24:59.003Z,84.94
2023-01-21T00:26:03.470Z,84.79
2023-01-21T00:27:05.852Z,84.52
2023-01-21T00:28:08.187Z,84.42
2023-01-21T00:29:11.189Z,84.09
2023-01-21T00:30:13.982Z,84.03
2023-01-21T00:31:16.215Z,83.71
2023-01-21T00:32:19.674Z,83.45
2023-01-21T00:33:21.923Z,83.71
2023-01-21T00:34:24.128Z,83.61
2023-01-21T00:35:26.658Z,83.89
2023-01-21T00:36:29.807Z,84.01
2023-01-21T00:37:32.034Z,84.44
2023-01-21T00:38:35.419Z,84.78
2023-01-21T00:39:42.684Z,84.85
2023-01-21T00:40:45.245Z,84.93
2023-01-21T00:41:47.398Z,85.08
2023-01-21T00:42:49.592Z,85.15
2023-01-21T00:43:52.644Z,85.52
2023-01-21T00:44:57.386Z,85.35
2023-01-21T00:46:00.266Z,85.52
2023-01-21T00:47:02.484Z,86.19
2023-01-21T00:48:04.993Z,86.67
2023-01-21T00:49:07.378Z,86.77
2023-01-21T00:50:10.423Z,87.54
2023-01-21T00:51:12.746Z,87.27
2023-01-21T00:52:15.077Z,86.77
2023-01-21T00:53:18.286Z,86.30
2023-01-21T00:54:20.948Z,86.03
2023-01-21T00:55:23.132Z,85.93
2023-01-21T00:56:25.614Z,85.70
2023-01-21T00:57:28.147Z,85.05
2023-01-21T00:58:31.316Z,84.98
2023-01-21T00:59:33.963Z,84.83
2023-01-21T01:00:36.329Z,84.43
2023-01-21T01:01:38.690Z,84.10
2023-01-21T01:02:40.963Z,84.05
2023-01-21T01:03:43.457Z,84.83
2023-01-21T01:04:45.671Z,85.02
2023-01-21T01:05:48.220Z,85.25
2023-01-21T01:06:50.410Z,85.20
2023-01-21T01:07:53.000Z,85.07
2023-01-21T01:08:58.461Z,85.31
2023-01-21T01:10:00.661Z,85.24
2023-01-21T01:11:03.775Z,85.18
2023-01-21T01:12:06.463Z,84.29
2023-01-21T01:13:08.929Z,84.50
2023-01-21T01:14:11.133Z,84.15
2023-01-21T01:15:13.336Z,84.33
2023-01-21T01:16:16.485Z,84.03
2023-01-21T01:17:18.707Z,84.22
2023-01-21T01:18:21.210Z,84.51
2023-01-21T01:19:23.523Z,85.02
2023-01-21T01:20:25.676Z,85.16
2023-01-21T01:21:28.323Z,85.15
2023-01-21T01:22:30.484Z,84.61
2023-01-21T01:23:33.355Z,85.14
2023-01-21T01:24:35.711Z,85.91
2023-01-21T01:25:38.017Z,86.02
2023-01-21T01:26:42.206Z,85.85
2023-01-21T01:27:44.597Z,86.38
2023-01-21T01:28:47.305Z,86.74
2023-01-21T01:29:49.677Z,86.99
2023-01-21T01:30:52.030Z,86.97
2023-01-21T01:31:54.301Z,86.62
2023-01-21T01:32:56.676Z,85.91
2023-01-21T01:33:59.043Z,85.63
2023-01-21T01:35:01.409Z,85.38
2023-01-21T01:36:06.298Z,84.71
2023-01-21T01:37:08.658Z,85.14
2023-01-21T01:38:10.834Z,84.98
2023-01-21T01:39:13.040Z,84.69
2023-01-21T01:40:15.944Z,84.95
2023-01-21T01:41:21.705Z,85.04
2023-01-21T01:42:24.005Z,84.89
2023-01-21T01:43:48.851Z,84.83
2023-01-21T01:45:07.402Z,84.93
2023-01-21T01:46:09.775Z,85.16
2023-01-21T01:47:12.341Z,85.60
2023-01-21T01:48:22.749Z,85.82
2023-01-21T01:49:25.147Z,85.79
2023-01-21T01:50:31.079Z,85.88
2023-01-21T01:51:48.505Z,85.21
2023-01-21T01:52:50.708Z,85.62
2023-01-21T01:53:53.559Z,85.74
2023-01-21T01:55:00.390Z,85.65
2023-01-21T01:56:03.117Z,85.27
2023-01-21T01:57:08.754Z,84.89
2023-01-21T01:58:15.050Z,84.71
2023-01-21T01:59:18.598Z,84.75
2023-01-21T02:00:22.003Z,84.71
2023-01-21T02:01:24.403Z,84.68
2023-01-21T02:02:27.028Z,84.60
2023-01-21T02:03:50.709Z,84.63
2023-01-21T02:05:00.967Z,84.85
2023-01-21T02:06:03.460Z,85.46
2023-01-21T02:07:05.763Z,85.69
2023-01-21T02:08:09.522Z,86.02
2023-01-21T02:09:12.166Z,85.95
2023-01-21T02:10:19.794Z,86.21
2023-01-21T02:11:22.155Z,86.30
2023-01-21T02:12:25.291Z,86.28
2023-01-21T02:13:29.390Z,86.11
2023-01-21T02:14:32.862Z,86.08
2023-01-21T02:15:42.506Z,85.64
2023-01-21T02:17:00.131Z,86.35
2023-01-21T02:18:41.396Z,85.82
2023-01-21T02:20:01.793Z,85.90
2023-01-21T02:21:04.326Z,85.92
2023-01-21T02:22:37.024Z,85.67
2023-01-21T02:24:24.041Z,86.32
2023-01-21T02:25:37.929Z,86.39
2023-01-21T02:26:53.921Z,86.13
2023-01-21T02:28:50.437Z,85.59
2023-01-21T02:30:13.793Z,85.12
2023-01-21T02:31:40.802Z,84.55
2023-01-21T02:33:13.654Z,84.40
2023-01-21T02:34:24.812Z,84.46
2023-01-21T02:35:53.470Z,85.11
2023-01-21T02:37:16.728Z,84.86
2023-01-21T02:38:43.985Z,85.38
2023-01-21T02:39:58.209Z,85.62
2023-01-21T02:41:35.990Z,86.22
2023-01-21T02:42:55.096Z,86.12
2023-01-21T02:44:32.673Z,86.32
2023-01-21T02:46:13.954Z,85.66
2023-01-21T02:47:38.168Z,85.30
2023-01-21T02:48:48.438Z,85.51
2023-01-21T02:50:00.157Z,85.59
2023-01-21T02:51:04.585Z,85.27
2023-01-21T02:52:07.042Z,85.33
2023-01-21T02:53:38.856Z,86.32
2023-01-21T02:54:41.134Z,86.29
2023-01-21T02:55:43.614Z,86.63
2023-01-21T02:56:45.938Z,86.50
2023-01-21T02:57:56.531Z,86.30
2023-01-21T02:59:06.151Z,86.34
2023-01-21T03:00:16.326Z,86.28
2023-01-21T03:01:30.513Z,86.07
2023-01-21T03:02:32.735Z,86.20
2023-01-21T03:03:44.309Z,86.49
2023-01-21T03:05:23.999Z,86.15
2023-01-21T03:06:32.248Z,85.78
2023-01-21T03:07:39.139Z,85.57
2023-01-21T03:08:48.253Z,85.43
2023-01-21T03:09:50.613Z,85.89
2023-01-21T03:11:09.201Z,87.03
2023-01-21T03:12:36.614Z,87.54
2023-01-21T03:14:03.540Z,88.13
2023-01-21T03:15:47.893Z,88.04
2023-01-21T03:17:03.484Z,87.56
2023-01-21T03:18:24.723Z,87.71
2023-01-21T03:19:39.381Z,87.87
2023-01-21T03:20:46.604Z,87.69
2023-01-21T03:21:50.533Z,86.90
2023-01-21T03:22:57.945Z,86.62
2023-01-21T03:24:01.638Z,86.81
2023-01-21T03:25:06.629Z,87.67
2023-01-21T03:26:10.908Z,88.05
2023-01-21T03:27:16.317Z,88.47
2023-01-21T03:28:24.092Z,88.67
2023-01-21T03:29:30.314Z,88.45
2023-01-21T03:30:34.319Z,88.10
2023-01-21T03:31:40.016Z,87.19
2023-01-21T03:32:46.299Z,87.32
2023-01-21T03:33:52.657Z,86.65
2023-01-21T03:34:57.087Z,85.76
2023-01-21T03:36:02.182Z,86.12
2023-01-21T03:37:13.383Z,85.69
2023-01-21T03:38:30.299Z,84.83
2023-01-21T03:39:40.778Z,85.32
2023-01-21T03:41:01.867Z,84.92
2023-01-21T03:42:04.179Z,84.19
2023-01-21T03:43:06.635Z,84.12
2023-01-21T03:44:09.290Z,83.85
2023-01-21T03:45:13.241Z,83.65
2023-01-21T03:46:27.302Z,83.08
2023-01-21T03:47:36.429Z,82.50
2023-01-21T03:49:28.104Z,82.31
2023-01-21T03:50:38.225Z,81.71
2023-01-21T03:51:48.851Z,81.00
2023-01-21T03:52:51.366Z,80.94
2023-01-21T03:53:57.404Z,81.12
2023-01-21T03:54:59.886Z,81.02
2023-01-21T03:56:02.448Z,81.26
2023-01-21T03:57:04.629Z,81.71
2023-01-21T03:58:06.810Z,82.69
2023-01-21T03:59:08.986Z,83.45
2023-01-21T04:00:13.409Z,83.44
2023-01-21T04:01:15.667Z,83.42
2023-01-21T04:02:20.333Z,82.95
2023-01-21T04:03:22.931Z,82.82
2023-01-21T04:04:25.063Z,82.93
2023-01-21T04:05:27.451Z,82.68
2023-01-21T04:06:29.636Z,82.73
2023-01-21T04:07:32.007Z,82.61
2023-01-21T04:08:34.240Z,82.35
2023-01-21T04:09:36.394Z,82.66
2023-01-21T04:10:38.770Z,82.52
2023-01-21T04:11:40.984Z,82.24
2023-01-21T04:12:43.357Z,82.19
2023-01-21T04:13:45.572Z,81.86
2023-01-21T04:14:47.741Z,81.94
2023-01-21T04:15:49.950Z,82.14
2023-01-21T04:16:55.831Z,81.81
2023-01-21T04:17:57.973Z,81.69
2023-01-21T04:19:00.138Z,81.53
2023-01-21T04:20:02.307Z,80.99
2023-01-21T04:21:04.497Z,80.83
2023-01-21T04:22:06.733Z,81.18
2023-01-21T04:23:09.262Z,81.76
2023-01-21T04:24:11.487Z,81.62
2023-01-21T04:25:13.711Z,81.57
2023-01-21T04:26:16.548Z,81.59
2023-01-21T04:27:18.789Z,81.30
2023-01-21T04:28:21.327Z,81.70
2023-01-21T04:29:23.515Z,81.62
2023-01-21T04:30:25.664Z,81.38
2023-01-21T04:31:27.883Z,81.05
2023-01-21T04:32:30.105Z,81.33
2023-01-21T04:33:32.505Z,81.24
2023-01-21T04:34:34.688Z,81.02
2023-01-21T04:35:37.160Z,80.91
2023-01-21T04:36:39.327Z,81.15
2023-01-21T04:37:41.686Z,80.71
2023-01-21T04:38:43.970Z,80.65
2023-01-21T04:39:46.137Z,80.84
2023-01-21T04:40:48.591Z,80.70
2023-01-21T04:41:50.804Z,80.28
2023-01-21T04:42:53.144Z,80.24
2023-01-21T04:43:55.690Z,79.83
2023-01-21T04:44:57.839Z,79.17
2023-01-21T04:46:00.240Z,78.68
2023-01-21T04:47:02.485Z,79.11
2023-01-21T04:48:04.799Z,79.22
2023-01-21T04:49:07.422Z,79.68
2023-01-21T04:50:11.602Z,79.67
2023-01-21T04:51:13.841Z,79.89
2023-01-21T04:52:16.031Z,79.89
2023-01-21T04:53:18.422Z,79.66
2023-01-21T04:54:20.665Z,79.95
2023-01-21T04:55:25.362Z,79.47
2023-01-21T04:56:28.356Z,79.38
2023-01-21T04:57:30.746Z,79.06
2023-01-21T04:58:33.066Z,79.17
2023-01-21T04:59:35.422Z,78.93
2023-01-21T05:00:37.829Z,78.61
2023-01-21T05:01:39.989Z,78.32
2023-01-21T05:02:42.342Z,78.34
2023-01-21T05:03:44.596Z,78.43
2023-01-21T05:04:46.891Z,79.30
2023-01-21T05:05:49.303Z,79.65
2023-01-21T05:06:51.515Z,79.88
2023-01-21T05:07:54.386Z,80.02
2023-01-21T05:08:56.622Z,80.06
2023-01-21T05:09:58.907Z,79.74
2023-01-21T05:11:01.611Z,79.99
2023-01-21T05:12:04.912Z,80.21
2023-01-21T05:13:07.108Z,79.83
2023-01-21T05:14:09.487Z,80.61
2023-01-21T05:15:12.070Z,80.75
2023-01-21T05:16:14.617Z,81.05
2023-01-21T05:17:16.993Z,80.57
2023-01-21T05:18:19.155Z,80.36
2023-01-21T05:19:21.364Z,80.44
2023-01-21T05:20:23.663Z,79.96
2023-01-21T05:21:26.115Z,80.43
2023-01-21T05:22:28.494Z,80.53
2023-01-21T05:23:30.704Z,80.30
2023-01-21T05:24:33.057Z,80.68
2023-01-21T05:25:35.240Z,80.79
2023-01-21T05:26:37.862Z,80.79
2023-01-21T05:27:40.074Z,80.08
2023-01-21T05:28:42.221Z,79.92
2023-01-21T05:29:44.607Z,80.21
2023-01-21T05:30:46.871Z,80.63
2023-01-21T05:31:49.301Z,81.00
2023-01-21T05:32:55.229Z,81.20
2023-01-21T05:33:58.021Z,80.98
2023-01-21T05:35:00.382Z,81.02
2023-01-21T05:36:03.701Z,81.14
2023-01-21T05:37:06.073Z,81.10
2023-01-21T05:38:08.286Z,80.89
2023-01-21T05:39:10.582Z,81.02
2023-01-21T05:40:14.371Z,80.60
2023-01-21T05:41:16.650Z,80.35
2023-01-21T05:42:18.828Z,80.28
2023-01-21T05:43:21.051Z,80.18
2023-01-21T05:44:23.300Z,80.63
2023-01-21T05:45:25.661Z,80.83
2023-01-21T05:46:28.083Z,81.07
2023-01-21T05:47:30.526Z,80.33
2023-01-21T05:48:32.866Z,80.00
2023-01-21T05:49:35.587Z,79.98
2023-01-21T05:50:38.760Z,80.43
2023-01-21T05:51:41.142Z,80.74
2023-01-21T05:52:43.569Z,80.97
2023-01-21T05:53:46.285Z,81.24
2023-01-21T05:55:00.939Z,81.40
2023-01-21T05:56:04.584Z,81.17
2023-01-21T05:57:06.957Z,81.20
2023-01-21T05:58:09.530Z,81.75
2023-01-21T05:59:11.741Z,81.74
2023-01-21T06:00:14.779Z,81.71
2023-01-21T06:01:17.047Z,81.42
2023-01-21T06:02:19.500Z,80.85
2023-01-21T06:03:22.041Z,80.58
2023-01-21T06:04:28.447Z,80.70
2023-01-21T06:05:30.743Z,80.46
2023-01-21T06:06:32.962Z,79.93
2023-01-21T06:07:35.535Z,80.17
2023-01-21T06:08:37.719Z,80.15
2023-01-21T06:10:42.805Z,81.10
2023-01-21T06:11:44.991Z,81.50
2023-01-21T06:12:51.949Z,81.52
2023-01-21T06:13:54.168Z,81.63
2023-01-21T06:14:56.349Z,79.83
2023-01-21T06:15:58.847Z,79.26
2023-01-21T06:17:01.072Z,78.66
2023-01-21T06:18:03.964Z,78.63
2023-01-21T06:19:06.140Z,78.55
2023-01-21T06:20:09.208Z,78.75
2023-01-21T06:21:11.619Z,78.53
2023-01-21T06:22:15.988Z,78.65
2023-01-21T06:23:18.350Z,78.77
2023-01-21T06:24:20.570Z,79.12
2023-01-21T06:25:23.504Z,79.58
2023-01-21T06:26:27.206Z,79.99
2023-01-21T06:27:29.729Z,80.39
2023-01-21T06:28:32.266Z,80.07
2023-01-21T06:29:34.511Z,80.49
2023-01-21T06:30:36.760Z,80.80
2023-01-21T06:31:39.519Z,80.31
2023-01-21T06:32:42.149Z,79.85
2023-01-21T06:33:44.522Z,79.53
2023-01-21T06:34:46.861Z,79.60
2023-01-21T06:35:49.195Z,79.61
2023-01-21T06:36:51.397Z,79.42
2023-01-21T06:37:53.800Z,79.85
2023-01-21T06:38:56.143Z,79.69
2023-01-21T06:39:58.373Z,79.62
2023-01-21T06:41:00.735Z,79.34
2023-01-21T06:42:02.931Z,79.37
2023-01-21T06:43:05.304Z,79.17
2023-01-21T06:44:07.836Z,78.78
2023-01-21T06:45:10.363Z,78.76
2023-01-21T06:46:12.951Z,78.69
2023-01-21T06:47:15.437Z,78.88
2023-01-21T06:48:17.866Z,78.57
2023-01-21T06:49:20.230Z,78.31
2023-01-21T06:50:22.526Z,78.67
2023-01-21T06:51:24.891Z,78.81
2023-01-21T06:52:27.121Z,78.78
2023-01-21T06:53:29.741Z,78.73
2023-01-21T06:54:32.124Z,78.67
2023-01-21T06:55:34.322Z,79.11
2023-01-21T06:56:37.079Z,79.40
2023-01-21T06:57:39.783Z,79.55
2023-01-21T06:58:42.188Z,79.98
2023-01-21T06:59:44.417Z,79.87
2023-01-21T07:00:46.598Z,79.82
2023-01-21T07:01:49.057Z,79.38
2023-01-21T07:02:56.312Z,79.34
2023-01-21T07:04:01.542Z,79.08
2023-01-21T07:05:05.325Z,79.16
2023-01-21T07:06:07.592Z,79.41
2023-01-21T07:07:09.958Z,79.20
2023-01-21T07:08:12.175Z,79.42
2023-01-21T07:09:14.546Z,79.07
2023-01-21T07:10:17.394Z,78.97
2023-01-21T07:11:19.651Z,78.96
2023-01-21T07:12:21.860Z,78.85
2023-01-21T07:13:24.306Z,79.07
2023-01-21T07:14:26.780Z,79.31
2023-01-21T07:15:30.967Z,78.92
2023-01-21T07:16:33.194Z,79.10
2023-01-21T07:17:35.426Z,79.44
2023-01-21T07:18:37.814Z,79.44
2023-01-21T07:19:40.198Z,79.42
2023-01-21T07:20:42.553Z,79.38
2023-01-21T07:21:44.796Z,79.27
2023-01-21T07:22:46.995Z,79.40
2023-01-21T07:23:52.386Z,79.44
2023-01-21T07:24:54.579Z,79.34
2023-01-21T07:25:56.830Z,79.49
2023-01-21T07:26:59.295Z,79.55
2023-01-21T07:28:01.750Z,79.75
2023-01-21T07:29:06.515Z,79.57
2023-01-21T07:30:15.710Z,79.87
2023-01-21T07:31:18.319Z,79.71
2023-01-21T07:32:20.696Z,79.38
2023-01-21T07:33:22.860Z,79.53
2023-01-21T07:34:25.315Z,79.08
2023-01-21T07:35:27.483Z,78.51
2023-01-21T07:36:29.688Z,78.76
2023-01-21T07:37:32.076Z,78.82
2023-01-21T07:38:34.631Z,79.04
2023-01-21T07:39:37.201Z,79.01
2023-01-21T07:40:39.368Z,78.61
2023-01-21T07:41:41.690Z,78.67
2023-01-21T07:42:56.304Z,78.82
2023-01-21T07:43:58.598Z,78.97
2023-01-21T07:45:03.063Z,78.74
2023-01-21T07:46:05.555Z,79.31
2023-01-21T07:47:07.728Z,78.92
2023-01-21T07:48:10.734Z,79.09
2023-01-21T07:49:17.219Z,79.10
2023-01-21T07:50:19.624Z,79.05
2023-01-21T07:51:22.457Z,79.31
2023-01-21T07:52:24.780Z,79.28
2023-01-21T07:53:27.521Z,79.30
2023-01-21T07:54:29.778Z,79.32
2023-01-21T07:55:33.094Z,79.01
2023-01-21T07:56:35.256Z,78.91
2023-01-21T07:57:37.647Z,78.83
2023-01-21T07:58:40.061Z,78.69
2023-01-21T07:59:42.289Z,79.15
2023-01-21T08:00:44.682Z,79.62
2023-01-21T08:01:47.002Z,79.94
2023-01-21T08:02:56.287Z,79.54
2023-01-21T08:03:59.278Z,79.54
2023-01-21T08:05:01.561Z,79.91
2023-01-21T08:06:04.904Z,79.74
2023-01-21T08:07:11.900Z,79.72
2023-01-21T08:08:15.468Z,79.85
2023-01-21T08:09:17.621Z,79.59
2023-01-21T08:10:22.229Z,79.68
2023-01-21T08:11:24.457Z,79.32
2023-01-21T08:12:27.413Z,79.14
2023-01-21T08:13:29.634Z,79.13
2023-01-21T08:14:32.571Z,79.35
2023-01-21T08:15:35.130Z,79.28
2023-01-21T08:16:37.311Z,78.82
2023-01-21T08:17:41.904Z,78.47
2023-01-21T08:18:44.070Z,78.57
2023-01-21T08:19:46.288Z,78.92
2023-01-21T08:20:49.463Z,79.15
2023-01-21T08:21:51.743Z,79.52
2023-01-21T08:22:53.962Z,79.35
2023-01-21T08:23:56.342Z,79.26
2023-01-21T08:24:58.624Z,78.98
2023-01-21T08:26:05.942Z,78.90
2023-01-21T08:27:08.337Z,79.14
2023-01-21T08:28:10.687Z,79.24
2023-01-21T08:29:13.039Z,79.37
2023-01-21T08:30:15.675Z,79.42
2023-01-21T08:31:18.300Z,79.54
2023-01-21T08:32:20.495Z,79.39
2023-01-21T08:33:22.683Z,79.00
2023-01-21T08:34:25.649Z,78.96
2023-01-21T08:35:28.045Z,79.09
2023-01-21T08:36:30.401Z,78.81
2023-01-21T08:37:32.696Z,78.48
2023-01-21T08:38:35.108Z,78.68
2023-01-21T08:39:37.414Z,78.33
2023-01-21T08:40:39.727Z,78.35
2023-01-21T08:41:42.591Z,77.99
2023-01-21T08:42:44.939Z,77.70
2023-01-21T08:43:47.129Z,77.68
2023-01-21T08:44:51.062Z,77.51
2023-01-21T08:45:56.938Z,77.40
2023-01-21T08:46:59.119Z,77.36
2023-01-21T08:48:04.025Z,77.26
2023-01-21T08:49:06.847Z,77.32
2023-01-21T08:50:10.795Z,77.77
2023-01-21T08:51:13.472Z,77.78
2023-01-21T08:52:17.130Z,78.13
2023-01-21T08:53:19.495Z,78.34
2023-01-21T08:54:21.717Z,78.32
2023-01-21T08:55:27.578Z,78.29
2023-01-21T08:56:29.981Z,78.33
2023-01-21T08:57:32.188Z,77.86
2023-01-21T08:58:34.642Z,77.57
2023-01-21T08:59:36.806Z,77.34
2023-01-21T09:00:39.454Z,77.42
2023-01-21T09:01:42.635Z,77.61
2023-01-21T09:02:44.809Z,77.47
2023-01-21T09:03:47.187Z,78.04
2023-01-21T09:04:50.592Z,78.06
2023-01-21T09:05:53.044Z,78.07
2023-01-21T09:06:55.353Z,77.98
2023-01-21T09:07:58.338Z,78.25
2023-01-21T09:09:00.601Z,78.44
2023-01-21T09:10:06.409Z,78.18
2023-01-21T09:11:09.469Z,78.16
2023-01-21T09:12:11.667Z,78.63
2023-01-21T09:13:14.080Z,78.38
2023-01-21T09:14:16.303Z,78.53
2023-01-21T09:15:18.927Z,78.17
2023-01-21T09:16:23.061Z,78.83
2023-01-21T09:17:25.569Z,78.72
2023-01-21T09:18:28.017Z,78.44
2023-01-21T09:19:30.253Z,78.38
2023-01-21T09:20:32.793Z,77.85
2023-01-21T09:21:35.182Z,77.83
2023-01-21T09:22:37.402Z,77.41
2023-01-21T09:23:40.650Z,77.46
2023-01-21T09:24:42.838Z,77.32
2023-01-21T09:25:45.219Z,77.19
2023-01-21T09:26:47.602Z,77.49
2023-01-21T09:27:49.819Z,77.51
2023-01-21T09:28:55.853Z,77.37
2023-01-21T09:29:58.021Z,77.42
2023-01-21T09:31:02.890Z,77.21
2023-01-21T09:32:05.642Z,76.74
2023-01-21T09:33:07.819Z,76.42
2023-01-21T09:34:11.712Z,76.34
2023-01-21T09:35:13.929Z,76.52
2023-01-21T09:36:21.882Z,76.37
2023-01-21T09:37:24.122Z,76.38
2023-01-21T09:38:26.891Z,76.12
2023-01-21T09:39:29.093Z,76.47
2023-01-21T09:40:31.543Z,76.68
2023-01-21T09:41:38.608Z,76.51
2023-01-21T09:42:42.872Z,76.87
2023-01-21T09:44:08.547Z,76.73
2023-01-21T09:45:15.077Z,76.78
2023-01-21T09:46:41.593Z,77.04
2023-01-21T09:47:48.185Z,76.80
2023-01-21T09:48:52.751Z,76.47
2023-01-21T09:50:14.364Z,76.57
2023-01-21T09:51:49.670Z,76.32
2023-01-21T09:53:01.039Z,76.48
2023-01-21T09:54:10.539Z,76.38
2023-01-21T09:55:17.177Z,76.41
2023-01-21T09:56:27.968Z,76.37
2023-01-21T09:58:12.745Z,76.18
2023-01-21T09:59:42.825Z,76.21
2023-01-21T10:01:06.538Z,76.06
2023-01-21T10:02:34.560Z,76.11
2023-01-21T10:03:52.471Z,76.09
2023-01-21T10:05:23.944Z,76.12
2023-01-21T10:06:51.465Z,77.37
2023-01-21T10:08:14.226Z,77.46
2023-01-21T10:09:48.757Z,76.63
2023-01-21T10:11:00.272Z,76.77
2023-01-21T10:12:09.908Z,76.96
2023-01-21T10:13:21.225Z,77.05
2023-01-21T10:15:00.835Z,76.80
2023-01-21T10:16:15.804Z,77.29
2023-01-21T10:17:26.673Z,76.93
2023-01-21T10:18:33.243Z,76.56
2023-01-21T10:19:53.092Z,76.51
2023-01-21T10:21:00.642Z,76.76
2023-01-21T10:22:12.520Z,76.41
2023-01-21T10:23:23.598Z,76.06
2023-01-21T10:24:33.327Z,75.83
2023-01-21T10:25:37.664Z,75.72
2023-01-21T10:26:43.264Z,75.35
2023-01-21T10:27:46.149Z,75.26
2023-01-21T10:28:51.804Z,75.37
2023-01-21T10:30:02.188Z,75.21
2023-01-21T10:31:26.595Z,75.22
2023-01-21T10:32:28.869Z,75.22
2023-01-21T10:33:33.054Z,74.96
2023-01-21T10:34:44.728Z,75.12
2023-01-21T10:36:12.461Z,74.99
2023-01-21T10:37:25.948Z,75.43
2023-01-21T10:38:42.120Z,75.60
2023-01-21T10:39:59.538Z,75.44
2023-01-21T10:41:25.859Z,75.66
2023-01-21T10:43:13.201Z,75.58
2023-01-21T10:44:32.337Z,75.32
2023-01-21T10:45:46.733Z,75.82
2023-01-21T10:46:49.300Z,75.95
2023-01-21T10:48:15.272Z,75.66
2023-01-21T10:49:29.715Z,75.60
2023-01-21T10:50:47.496Z,75.38
2023-01-21T10:52:00.576Z,75.33
2023-01-21T10:53:21.105Z,75.49
2023-01-21T10:54:35.328Z,75.57
2023-01-21T10:56:03.280Z,75.71
2023-01-21T10:57:29.783Z,75.66
2023-01-21T10:58:32.128Z,75.85
2023-01-21T10:59:37.703Z,75.81
2023-01-21T11:00:44.909Z,75.75
2023-01-21T11:01:50.540Z,75.78
2023-01-21T11:02:58.051Z,75.85
2023-01-21T11:04:05.888Z,75.92
2023-01-21T11:05:14.042Z,75.80
2023-01-21T11:06:18.519Z,75.83
2023-01-21T11:07:21.505Z,75.64
2023-01-21T11:08:26.478Z,75.81
2023-01-21T11:09:33.450Z,75.54
2023-01-21T11:10:35.658Z,75.50
2023-01-21T11:11:40.424Z,75.63
2023-01-21T11:12:42.606Z,75.29
2023-01-21T11:13:45.164Z,75.36
2023-01-21T11:14:56.832Z,75.10
2023-01-21T11:16:00.021Z,75.19
2023-01-21T11:17:02.495Z,75.22
2023-01-21T11:18:38.267Z,75.25
2023-01-21T11:19:40.666Z,75.09
2023-01-21T11:20:43.557Z,75.46
2023-01-21T11:22:16.710Z,75.36
2023-01-21T11:23:35.272Z,75.59
2023-01-21T11:24:47.027Z,75.45
2023-01-21T11:25:49.274Z,75.84
2023-01-21T11:26:56.838Z,76.08
2023-01-21T11:27:59.250Z,75.95
2023-01-21T11:29:16.727Z,76.11
2023-01-21T11:30:49.575Z,75.83
2023-01-21T11:32:10.814Z,76.40
2023-01-21T11:33:19.287Z,76.51
2023-01-21T11:34:23.967Z,76.74
2023-01-21T11:35:26.408Z,76.83
2023-01-21T11:36:28.853Z,76.93
2023-01-21T11:37:33.010Z,76.97
2023-01-21T11:38:36.243Z,76.80
2023-01-21T11:39:48.774Z,76.51
2023-01-21T11:41:13.369Z,76.35
2023-01-21T11:42:18.183Z,76.78
2023-01-21T11:43:53.644Z,76.83
2023-01-21T11:45:01.661Z,77.30
2023-01-21T11:46:31.320Z,77.45
2023-01-21T11:47:38.515Z,77.18
2023-01-21T11:48:44.081Z,77.13
2023-01-21T11:49:48.145Z,76.81
2023-01-21T11:50:50.741Z,76.71
2023-01-21T11:52:17.941Z,77.00
2023-01-21T11:53:20.146Z,77.55
2023-01-21T11:54:24.125Z,77.35
2023-01-21T11:55:26.862Z,77.46
2023-01-21T11:56:29.154Z,77.47
2023-01-21T11:57:32.879Z,77.83
2023-01-21T11:58:37.256Z,78.25
2023-01-21T11:59:45.250Z,78.24
2023-01-21T12:00:49.509Z,78.52
2023-01-21T12:02:05.296Z,78.20
2023-01-21T12:03:14.442Z,77.94
2023-01-21T12:04:17.055Z,77.64
2023-01-21T12:05:29.484Z,77.57
2023-01-21T12:06:32.284Z,77.53
2023-01-21T12:07:37.719Z,77.52
2023-01-21T12:08:41.325Z,77.69
2023-01-21T12:09:54.791Z,78.24
2023-01-21T12:11:03.669Z,78.20
2023-01-21T12:12:42.971Z,78.20
2023-01-21T12:14:21.756Z,78.05
2023-01-21T12:15:33.347Z,78.34
2023-01-21T12:16:38.502Z,78.61
2023-01-21T12:18:07.197Z,78.45
2023-01-21T12:19:52.217Z,78.66
2023-01-21T12:21:18.553Z,79.05
2023-01-21T12:22:51.243Z,78.92
2023-01-21T12:24:18.245Z,79.21
2023-01-21T12:25:52.130Z,79.28
2023-01-21T12:27:09.414Z,79.23
2023-01-21T12:28:26.951Z,79.40
2023-01-21T12:29:38.104Z,79.91
2023-01-21T12:31:06.327Z,80.22
2023-01-21T12:32:24.778Z,80.64
2023-01-21T12:33:29.909Z,81.03
2023-01-21T12:34:38.696Z,81.44
2023-01-21T12:35:50.099Z,82.00
2023-01-21T12:37:01.616Z,82.26
2023-01-21T12:38:19.970Z,82.54
2023-01-21T12:39:29.880Z,82.72
2023-01-21T12:40:39.325Z,83.19
2023-01-21T12:41:44.269Z,83.60
2023-01-21T12:42:54.201Z,83.84
2023-01-21T12:44:13.515Z,84.07
2023-01-21T12:45:36.261Z,84.30
2023-01-21T12:46:45.225Z,84.71
2023-01-21T12:47:58.124Z,85.08
2023-01-21T12:49:15.690Z,85.37
2023-01-21T12:50:29.436Z,85.76
2023-01-21T12:51:41.442Z,85.68
2023-01-21T12:53:04.769Z,86.11
2023-01-21T12:54:15.222Z,86.40
2023-01-21T12:55:54.831Z,86.49
2023-01-21T12:57:06.699Z,86.88
2023-01-21T12:58:14.776Z,87.10
2023-01-21T12:59:23.880Z,87.47
2023-01-21T13:00:31.963Z,87.51
2023-01-21T13:01:56.545Z,87.97
2023-01-21T13:03:32.992Z,87.97
2023-01-21T13:04:49.593Z,88.09
2023-01-21T13:06:10.571Z,88.21
2023-01-21T13:07:27.034Z,88.51
2023-01-21T13:08:49.446Z,88.56
2023-01-21T13:10:12.337Z,88.58
2023-01-21T13:11:20.146Z,88.59
2023-01-21T13:12:25.793Z,88.77
2023-01-21T13:13:37.578Z,88.91
2023-01-21T13:14:42.996Z,88.94
2023-01-21T13:15:49.759Z,89.25
2023-01-21T13:16:59.176Z,89.06
2023-01-21T13:18:08.321Z,89.25
2023-01-21T13:19:14.272Z,89.33
2023-01-21T13:20:19.735Z,89.25
2023-01-21T13:21:49.963Z,89.21
2023-01-21T13:22:58.276Z,89.72
2023-01-21T13:24:13.953Z,89.88
2023-01-21T13:25:28.450Z,90.00
2023-01-21T13:26:39.907Z,89.99
2023-01-21T13:27:48.079Z,89.89
2023-01-21T13:29:05.519Z,89.68
2023-01-21T13:30:33.520Z,89.66
2023-01-21T13:31:50.949Z,89.35
2023-01-21T13:33:13.925Z,89.65
2023-01-21T13:34:28.435Z,89.57
2023-01-21T13:35:58.806Z,89.35
2023-01-21T13:37:21.465Z,89.28
2023-01-21T13:38:49.136Z,88.98
2023-01-21T13:40:30.022Z,88.93
2023-01-21T13:42:02.536Z,88.97
2023-01-21T13:43:21.680Z,89.08
2023-01-21T13:44:42.351Z,89.28
2023-01-21T13:46:08.892Z,88.83
2023-01-21T13:47:17.534Z,89.00
2023-01-21T13:48:46.374Z,88.96
2023-01-21T13:50:06.370Z,88.88
2023-01-21T13:51:41.016Z,89.11
2023-01-21T13:53:03.987Z,88.86
2023-01-21T13:54:21.697Z,88.78
2023-01-21T13:55:23.845Z,88.78
2023-01-21T13:56:38.226Z,88.49
2023-01-21T13:58:02.673Z,88.44
2023-01-21T13:59:21.575Z,88.13
2023-01-21T14:00:33.697Z,88.35
2023-01-21T14:01:48.899Z,88.52
2023-01-21T14:03:25.967Z,88.28
2023-01-21T14:04:44.248Z,88.54
2023-01-21T14:05:59.737Z,88.65
2023-01-21T14:07:11.153Z,88.38
2023-01-21T14:08:25.162Z,88.58
2023-01-21T14:09:38.242Z,88.63
2023-01-21T14:10:51.337Z,88.80
2023-01-21T14:11:56.703Z,88.73
2023-01-21T14:13:10.991Z,88.79
2023-01-21T14:14:16.211Z,88.94
2023-01-21T14:15:39.463Z,88.80
2023-01-21T14:16:52.839Z,88.86
2023-01-21T14:18:13.790Z,89.00
2023-01-21T14:19:34.376Z,89.28
2023-01-21T14:20:42.937Z,89.06
2023-01-21T14:21:54.606Z,89.09
2023-01-21T14:23:15.448Z,89.13
2023-01-21T14:24:41.945Z,89.10
2023-01-21T14:25:49.779Z,88.93
2023-01-21T14:27:16.438Z,89.37
2023-01-21T14:28:31.906Z,89.11
2023-01-21T14:29:49.121Z,88.92
2023-01-21T14:31:04.792Z,88.62
2023-01-21T14:32:16.056Z,88.64
2023-01-21T14:33:26.627Z,88.46
2023-01-21T14:34:45.976Z,88.36
2023-01-21T14:35:54.082Z,88.57
2023-01-21T14:37:06.629Z,88.65